createdAt,value
2019-03-13T00:01:47.266Z,9.33
2019-03-13T00:04:17.955Z,9.64
2019-03-13T00:06:50.216Z,9.58
2019-03-13T00:09:22.431Z,9.55
2019-03-13T00:11:57.638Z,9.54
2019-03-13T00:14:28.558Z,9.57
2019-03-13T00:17:06.177Z,9.41
2019-03-13T00:19:38.665Z,9.29
2019-03-13T00:22:12.123Z,9.23
2019-03-13T00:24:45.036Z,9.17
2019-03-13T00:27:15.895Z,9.10
2019-03-13T00:29:51.268Z,9.05
2019-03-13T00:32:23.355Z,8.97
2019-03-13T00:34:55.583Z,8.86
2019-03-13T00:37:27.697Z,8.73
2019-03-13T00:40:00.347Z,8.65
2019-03-13T00:42:30.992Z,8.54
2019-03-13T00:45:04.973Z,8.49
2019-03-13T00:47:35.625Z,8.41
2019-03-13T00:50:23.262Z,8.35
2019-03-13T00:52:56.449Z,8.30
2019-03-13T00:55:27.010Z,8.17
2019-03-13T00:57:58.719Z,8.00
2019-03-13T01:01:03.178Z,7.94
2019-03-13T01:03:58.165Z,7.83
2019-03-13T01:06:32.421Z,7.60
2019-03-13T01:09:07.422Z,7.60
2019-03-13T01:11:38.014Z,7.42
2019-03-13T01:14:11.617Z,7.26
2019-03-13T01:16:42.127Z,7.21
2019-03-13T01:19:18.299Z,7.15
2019-03-13T01:21:48.603Z,7.04
2019-03-13T01:24:27.318Z,6.95
2019-03-13T01:26:57.729Z,6.91
2019-03-13T01:29:29.095Z,6.82
2019-03-13T01:32:26.858Z,6.68
2019-03-13T01:35:14.293Z,6.72
2019-03-13T01:37:47.448Z,6.61
2019-03-13T01:40:21.419Z,6.67
2019-03-13T01:42:55.349Z,6.60
2019-03-13T01:45:27.393Z,6.51
2019-03-13T01:47:59.669Z,6.58
2019-03-13T01:50:31.728Z,6.61
2019-03-13T01:53:04.502Z,6.48
2019-03-13T01:55:35.285Z,6.44
2019-03-13T01:58:05.871Z,6.38
2019-03-13T02:00:36.418Z,6.46
2019-03-13T02:03:08.683Z,6.53
2019-03-13T02:05:40.639Z,6.37
2019-03-13T02:08:13.818Z,6.45
2019-03-13T02:10:46.836Z,6.38
2019-03-13T02:13:22.550Z,6.37
2019-03-13T02:15:53.118Z,6.31
2019-03-13T02:18:25.388Z,6.34
2019-03-13T02:20:55.860Z,6.29
2019-03-13T02:23:26.789Z,6.15
2019-03-13T02:26:00.574Z,6.19
2019-03-13T02:28:32.680Z,6.17
2019-03-13T02:31:06.202Z,6.17
2019-03-13T02:33:36.976Z,6.22
2019-03-13T02:36:09.434Z,6.15
2019-03-13T02:38:40.594Z,6.01
2019-03-13T02:41:10.955Z,5.91
2019-03-13T02:43:41.570Z,5.90
2019-03-13T02:46:12.275Z,5.79
2019-03-13T02:48:46.058Z,5.89
2019-03-13T02:51:16.454Z,5.96
2019-03-13T02:53:48.505Z,5.97
2019-03-13T02:56:20.821Z,5.90
2019-03-13T02:58:55.909Z,5.89
2019-03-13T03:01:41.966Z,5.91
2019-03-13T03:04:16.506Z,5.72
2019-03-13T03:06:52.420Z,5.66
2019-03-13T03:09:28.805Z,5.43
2019-03-13T03:11:59.230Z,5.27
2019-03-13T03:14:32.125Z,5.08
2019-03-13T03:17:13.356Z,4.96
2019-03-13T03:19:43.932Z,4.87
2019-03-13T03:22:14.487Z,4.72
2019-03-13T03:24:46.517Z,4.59
2019-03-13T03:27:17.026Z,4.44
2019-03-13T03:29:47.323Z,4.41
2019-03-13T03:32:18.063Z,4.28
2019-03-13T03:34:59.091Z,4.31
2019-03-13T03:37:25.143Z,4.26
2019-03-13T03:39:55.565Z,4.25
2019-03-13T03:42:26.399Z,4.26
2019-03-13T03:44:56.920Z,4.23
2019-03-13T03:47:30.173Z,4.17
2019-03-13T03:50:03.434Z,4.27
2019-03-13T03:52:33.723Z,4.37
2019-03-13T03:55:08.197Z,4.46
2019-03-13T03:57:38.876Z,4.47
2019-03-13T04:00:18.046Z,4.48
2019-03-13T04:02:51.370Z,4.54
2019-03-13T04:05:22.196Z,4.61
2019-03-13T04:07:53.788Z,4.68
2019-03-13T04:10:29.218Z,4.74
2019-03-13T04:13:01.362Z,4.66
2019-03-13T04:15:33.403Z,4.67
2019-03-13T04:18:05.740Z,4.68
2019-03-13T04:20:40.001Z,4.69
2019-03-13T04:23:10.698Z,4.68
2019-03-13T04:25:41.257Z,4.70
2019-03-13T04:28:11.599Z,4.58
2019-03-13T04:30:43.672Z,4.52
2019-03-13T04:33:16.616Z,4.45
2019-03-13T04:35:47.547Z,4.44
2019-03-13T04:38:17.841Z,4.37
2019-03-13T04:40:48.399Z,4.30
2019-03-13T04:43:19.896Z,4.17
2019-03-13T04:45:52.125Z,4.12
2019-03-13T04:48:27.988Z,4.15
2019-03-13T04:50:58.688Z,4.21
2019-03-13T04:53:32.649Z,4.26
2019-03-13T04:56:07.407Z,4.32
2019-03-13T04:58:38.029Z,4.40
2019-03-13T05:01:10.366Z,4.45
2019-03-13T05:03:40.512Z,4.47
2019-03-13T05:06:23.196Z,4.50
2019-03-13T05:09:06.790Z,4.55
2019-03-13T05:11:40.041Z,4.61
2019-03-13T05:14:10.306Z,4.45
2019-03-13T05:16:48.163Z,4.34
2019-03-13T05:19:18.728Z,4.14
2019-03-13T05:21:49.471Z,4.17
2019-03-13T05:24:19.979Z,4.08
2019-03-13T05:26:52.117Z,4.18
2019-03-13T05:29:24.346Z,4.25
2019-03-13T05:31:59.260Z,4.16
2019-03-13T05:34:29.904Z,4.27
2019-03-13T05:37:00.336Z,4.26
2019-03-13T05:39:35.177Z,4.20
2019-03-13T05:42:06.900Z,4.21
2019-03-13T05:44:37.252Z,4.20
2019-03-13T05:47:07.636Z,4.21
2019-03-13T05:49:37.870Z,4.22
2019-03-13T05:52:11.703Z,4.30
2019-03-13T05:54:55.485Z,4.32
2019-03-13T05:57:34.842Z,4.34
2019-03-13T06:00:06.101Z,4.40
2019-03-13T06:02:40.789Z,4.44
2019-03-13T06:05:12.856Z,4.44
2019-03-13T06:07:47.064Z,4.36
2019-03-13T06:10:19.912Z,4.41
2019-03-13T06:12:53.326Z,4.41
2019-03-13T06:15:23.870Z,4.24
2019-03-13T06:17:54.363Z,4.14
2019-03-13T06:20:24.894Z,4.07
2019-03-13T06:22:57.269Z,4.03
2019-03-13T06:25:28.121Z,4.09
2019-03-13T06:27:58.480Z,4.29
2019-03-13T06:30:39.718Z,4.54
2019-03-13T06:33:15.222Z,4.83
2019-03-13T06:35:50.526Z,4.98
2019-03-13T06:38:22.294Z,5.14
2019-03-13T06:40:52.850Z,5.29
2019-03-13T06:43:24.790Z,5.43
2019-03-13T06:45:58.052Z,5.57
2019-03-13T06:48:28.428Z,5.63
2019-03-13T06:50:58.825Z,5.63
2019-03-13T06:53:34.252Z,5.49
2019-03-13T06:56:04.769Z,5.33
2019-03-13T06:58:41.450Z,5.27
2019-03-13T07:01:33.173Z,5.29
2019-03-13T07:04:23.667Z,5.35
2019-03-13T07:07:16.425Z,5.58
2019-03-13T07:10:08.996Z,5.94
2019-03-13T07:13:08.480Z,6.33
2019-03-13T07:15:52.490Z,6.77
2019-03-13T07:18:43.342Z,7.03
2019-03-13T07:21:27.880Z,7.06
2019-03-13T07:24:16.018Z,7.17
2019-03-13T07:27:05.605Z,7.43
2019-03-13T07:29:42.621Z,7.40
2019-03-13T07:32:36.941Z,7.13
2019-03-13T07:35:25.022Z,7.22
2019-03-13T07:38:26.597Z,7.82
2019-03-13T07:41:15.931Z,7.92
2019-03-13T07:44:05.393Z,7.98
2019-03-13T07:46:44.637Z,8.63
2019-03-13T07:49:21.573Z,8.95
2019-03-13T07:52:10.765Z,8.87
2019-03-13T07:55:01.937Z,8.86
2019-03-13T07:57:57.047Z,8.66
2019-03-13T08:00:48.180Z,8.75
2019-03-13T08:03:52.712Z,9.13
2019-03-13T08:06:42.086Z,9.05
2019-03-13T08:09:30.260Z,8.56
2019-03-13T08:12:23.165Z,8.33
2019-03-13T08:15:05.472Z,8.49
2019-03-13T08:17:57.071Z,8.32
2019-03-13T08:20:45.810Z,8.08
2019-03-13T08:23:45.338Z,8.75
2019-03-13T08:26:32.144Z,9.11
2019-03-13T08:29:37.224Z,9.74
2019-03-13T08:32:27.215Z,10.35
2019-03-13T08:35:24.116Z,9.54
2019-03-13T08:38:16.835Z,9.24
2019-03-13T08:41:00.568Z,9.01
2019-03-13T08:43:40.249Z,8.94
2019-03-13T08:46:37.562Z,8.34
2019-03-13T08:49:15.749Z,8.29
2019-03-13T08:52:04.361Z,8.08
2019-03-13T08:55:03.639Z,8.01
2019-03-13T08:57:48.674Z,7.65
2019-03-13T09:00:56.314Z,7.54
2019-03-13T09:03:31.994Z,7.65
2019-03-13T09:06:21.682Z,7.43
2019-03-13T09:09:24.806Z,7.47
2019-03-13T09:12:05.426Z,7.96
2019-03-13T09:14:58.422Z,8.70
2019-03-13T09:17:45.436Z,9.14
2019-03-13T09:20:38.330Z,9.51
2019-03-13T09:23:22.100Z,9.29
2019-03-13T09:26:14.351Z,9.37
2019-03-13T09:29:08.201Z,8.91
2019-03-13T09:31:56.617Z,8.66
2019-03-13T09:34:55.344Z,8.89
2019-03-13T09:38:03.703Z,8.82
2019-03-13T09:41:03.996Z,9.00
2019-03-13T09:44:00.064Z,9.11
2019-03-13T09:46:53.069Z,11.77
2019-03-13T09:49:50.457Z,13.25
2019-03-13T09:52:33.472Z,14.37
2019-03-13T09:55:17.724Z,16.14
2019-03-13T09:58:02.194Z,14.97
2019-03-13T10:00:44.457Z,12.98
2019-03-13T10:03:26.155Z,14.35
2019-03-13T10:06:18.586Z,16.63
2019-03-13T10:09:10.482Z,18.04
2019-03-13T10:11:51.386Z,18.85
2019-03-13T10:14:41.588Z,18.75
2019-03-13T10:17:22.919Z,18.53
2019-03-13T10:20:14.412Z,18.87
2019-03-13T10:23:10.231Z,17.57
2019-03-13T10:25:56.200Z,17.80
2019-03-13T10:28:47.930Z,15.85
2019-03-13T10:31:29.121Z,15.95
2019-03-13T10:34:35.529Z,17.93
2019-03-13T10:37:37.970Z,17.92
2019-03-13T10:40:43.777Z,17.33
2019-03-13T10:43:27.101Z,16.00
2019-03-13T10:46:19.610Z,16.30
2019-03-13T10:49:21.373Z,16.32
2019-03-13T10:52:14.448Z,14.50
2019-03-13T10:55:16.655Z,13.97
2019-03-13T10:58:10.239Z,14.74
2019-03-13T11:01:13.771Z,16.47
2019-03-13T11:04:05.576Z,14.55
2019-03-13T11:07:07.423Z,14.61
2019-03-13T11:09:50.933Z,13.96
2019-03-13T11:12:26.275Z,13.60
2019-03-13T11:15:17.130Z,16.00
2019-03-13T11:17:53.726Z,16.54
2019-03-13T11:20:59.084Z,14.04
2019-03-13T11:23:37.448Z,13.12
2019-03-13T11:26:35.596Z,13.00
2019-03-13T11:29:21.525Z,12.32
2019-03-13T11:32:08.366Z,11.56
2019-03-13T11:35:02.136Z,12.10
2019-03-13T11:37:51.717Z,11.58
2019-03-13T11:40:41.053Z,11.13
2019-03-13T11:43:42.463Z,10.95
2019-03-13T11:46:32.147Z,10.73
2019-03-13T11:49:21.929Z,10.77
2019-03-13T11:52:23.355Z,10.39
2019-03-13T11:55:11.514Z,10.39
2019-03-13T11:57:56.396Z,10.33
2019-03-13T12:00:51.707Z,9.22
2019-03-13T12:03:47.003Z,9.22
2019-03-13T12:06:36.062Z,9.52
2019-03-13T12:09:23.573Z,9.57
2019-03-13T12:12:25.156Z,9.95
2019-03-13T12:15:06.851Z,10.25
2019-03-13T12:17:54.635Z,9.95
2019-03-13T12:21:05.205Z,9.95
2019-03-13T12:24:00.792Z,10.12
2019-03-13T12:26:53.094Z,9.85
2019-03-13T12:29:43.139Z,9.96
2019-03-13T12:32:30.532Z,10.02
2019-03-13T12:35:22.293Z,9.53
2019-03-13T12:38:05.164Z,9.47
2019-03-13T12:40:58.734Z,11.78
2019-03-13T12:43:47.475Z,14.63
2019-03-13T12:46:41.116Z,16.61
2019-03-13T12:49:36.637Z,15.69
2019-03-13T12:52:33.558Z,14.04
2019-03-13T12:55:22.756Z,13.38
2019-03-13T12:58:01.192Z,12.09
2019-03-13T13:00:59.321Z,11.94
2019-03-13T13:03:55.959Z,11.53
2019-03-13T13:06:44.875Z,11.90
2019-03-13T13:09:36.113Z,11.00
2019-03-13T13:12:23.002Z,10.49
2019-03-13T13:15:06.742Z,10.34
2019-03-13T13:18:09.091Z,10.08
2019-03-13T13:20:39.825Z,9.75
2019-03-13T13:23:13.758Z,9.72
2019-03-13T13:25:44.571Z,9.50
2019-03-13T13:28:15.234Z,9.41
2019-03-13T13:30:46.248Z,8.82
2019-03-13T13:33:18.211Z,8.83
2019-03-13T13:35:50.532Z,8.64
2019-03-13T13:38:21.592Z,8.77
2019-03-13T13:40:54.465Z,9.51
2019-03-13T13:43:25.704Z,11.04
2019-03-13T13:46:33.919Z,12.34
2019-03-13T13:49:05.665Z,12.24
2019-03-13T13:51:37.301Z,11.71
2019-03-13T13:54:09.375Z,12.58
2019-03-13T13:56:39.948Z,13.87
2019-03-13T13:59:10.547Z,15.87
2019-03-13T14:01:41.887Z,16.14
2019-03-13T14:04:19.502Z,16.20
2019-03-13T14:06:50.434Z,14.69
2019-03-13T14:09:22.751Z,13.70
2019-03-13T14:11:53.901Z,13.59
2019-03-13T14:14:27.806Z,12.60
2019-03-13T14:16:58.406Z,12.14
2019-03-13T14:19:32.266Z,12.27
2019-03-13T14:22:04.259Z,12.76
2019-03-13T14:24:37.499Z,11.63
2019-03-13T14:27:14.385Z,10.94
2019-03-13T14:29:41.586Z,10.92
2019-03-13T14:32:16.571Z,10.12
2019-03-13T14:34:48.703Z,10.03
2019-03-13T14:37:19.106Z,9.85
2019-03-13T14:39:49.472Z,9.96
2019-03-13T14:42:20.168Z,9.94
2019-03-13T14:44:50.650Z,9.96
2019-03-13T14:47:21.066Z,9.92
2019-03-13T14:49:57.715Z,9.88
2019-03-13T14:52:28.344Z,10.19
2019-03-13T14:55:02.894Z,9.77
2019-03-13T14:57:37.360Z,9.62
2019-03-13T15:00:13.470Z,9.44
2019-03-13T15:02:43.849Z,9.60
2019-03-13T15:05:14.593Z,9.49
2019-03-13T15:07:49.343Z,9.68
2019-03-13T15:10:20.672Z,9.79
2019-03-13T15:12:54.200Z,9.82
2019-03-13T15:15:24.532Z,9.22
2019-03-13T15:17:55.203Z,9.39
2019-03-13T15:20:25.578Z,9.13
2019-03-13T15:22:57.745Z,9.17
2019-03-13T15:25:28.583Z,9.07
2019-03-13T15:27:59.319Z,9.04
2019-03-13T15:30:36.119Z,9.12
2019-03-13T15:33:08.091Z,9.19
2019-03-13T15:35:42.117Z,8.82
2019-03-13T15:38:14.413Z,8.81
2019-03-13T15:40:46.714Z,8.80
2019-03-13T15:43:17.462Z,8.86
2019-03-13T15:45:51.315Z,8.82
2019-03-13T15:48:23.226Z,8.77
2019-03-13T15:50:53.541Z,8.71
2019-03-13T15:53:24.241Z,8.48
2019-03-13T15:55:57.807Z,8.41
2019-03-13T15:58:28.462Z,8.62
2019-03-13T16:00:59.130Z,8.56
2019-03-13T16:03:29.880Z,8.65
2019-03-13T16:06:08.546Z,8.75
2019-03-13T16:08:40.638Z,8.55
2019-03-13T16:11:11.463Z,8.78
2019-03-13T16:13:47.132Z,8.79
2019-03-13T16:16:20.563Z,8.93
2019-03-13T16:18:52.802Z,8.88
2019-03-13T16:21:23.139Z,8.75
2019-03-13T16:23:53.859Z,8.72
2019-03-13T16:26:28.254Z,8.69
2019-03-13T16:29:00.421Z,8.40
2019-03-13T16:31:30.792Z,8.19
2019-03-13T16:34:01.568Z,8.04
2019-03-13T16:36:32.290Z,8.00
2019-03-13T16:39:07.105Z,7.90
2019-03-13T16:41:40.335Z,8.04
2019-03-13T16:44:10.978Z,8.04
2019-03-13T16:46:41.603Z,7.98
2019-03-13T16:49:12.405Z,7.85
2019-03-13T16:51:43.553Z,7.75
2019-03-13T16:54:16.793Z,7.86
2019-03-13T16:56:48.069Z,7.79
2019-03-13T16:59:20.257Z,7.85
2019-03-13T17:01:53.188Z,7.56
2019-03-13T17:04:23.734Z,7.56
2019-03-13T17:06:54.469Z,7.50
2019-03-13T17:09:25.274Z,7.39
2019-03-13T17:11:58.278Z,7.18
2019-03-13T17:14:29.050Z,7.13
2019-03-13T17:16:59.634Z,7.05
2019-03-13T17:19:32.564Z,7.04
2019-03-13T17:22:09.233Z,7.03
2019-03-13T17:24:42.676Z,7.07
2019-03-13T17:27:18.519Z,7.07
2019-03-13T17:29:51.971Z,7.11
2019-03-13T17:32:22.504Z,7.12
2019-03-13T17:34:53.425Z,7.12
2019-03-13T17:37:23.843Z,7.10
2019-03-13T17:39:54.721Z,7.14
2019-03-13T17:42:29.451Z,7.11
2019-03-13T17:45:00.692Z,7.02
2019-03-13T17:47:31.423Z,6.95
2019-03-13T17:50:02.256Z,6.95
2019-03-13T17:52:34.653Z,7.03
2019-03-13T17:55:05.514Z,6.95
2019-03-13T17:57:35.841Z,6.94
2019-03-13T18:00:11.880Z,6.85
2019-03-13T18:02:44.221Z,6.83
2019-03-13T18:05:15.362Z,6.85
2019-03-13T18:07:46.282Z,6.80
2019-03-13T18:10:18.214Z,6.81
2019-03-13T18:12:48.742Z,6.87
2019-03-13T18:15:21.053Z,6.81
2019-03-13T18:17:51.901Z,6.80
2019-03-13T18:20:22.338Z,6.85
2019-03-13T18:22:53.093Z,6.83
2019-03-13T18:25:23.702Z,6.86
2019-03-13T18:27:54.147Z,6.90
2019-03-13T18:30:25.272Z,6.91
2019-03-13T18:32:57.153Z,6.86
2019-03-13T18:35:29.012Z,6.81
2019-03-13T18:38:02.534Z,6.76
2019-03-13T18:40:32.952Z,6.65
2019-03-13T18:43:03.815Z,6.63
2019-03-13T18:45:34.325Z,6.63
2019-03-13T18:48:06.221Z,6.60
2019-03-13T18:50:37.138Z,6.58
2019-03-13T18:53:07.708Z,6.63
2019-03-13T18:55:38.984Z,6.53
2019-03-13T18:58:09.624Z,6.52
2019-03-13T19:00:40.294Z,6.39
2019-03-13T19:03:12.148Z,6.43
2019-03-13T19:05:44.668Z,6.31
2019-03-13T19:08:15.542Z,6.30
2019-03-13T19:10:48.283Z,6.28
2019-03-13T19:13:19.224Z,6.25
2019-03-13T19:15:53.764Z,6.09
2019-03-13T19:18:24.317Z,6.08
2019-03-13T19:20:58.417Z,6.03
2019-03-13T19:23:28.526Z,5.99
2019-03-13T19:26:03.433Z,5.97
2019-03-13T19:28:34.469Z,5.91
2019-03-13T19:31:05.088Z,5.62
2019-03-13T19:33:35.807Z,5.61
2019-03-13T19:36:07.203Z,5.55
2019-03-13T19:38:41.679Z,5.50
2019-03-13T19:41:15.285Z,5.49
2019-03-13T19:43:48.618Z,5.52
2019-03-13T19:46:20.381Z,5.49
2019-03-13T19:48:53.973Z,5.40
2019-03-13T19:51:24.336Z,5.37
2019-03-13T19:53:55.113Z,5.33
2019-03-13T19:56:27.444Z,5.28
2019-03-13T19:59:00.098Z,5.25
2019-03-13T20:01:31.017Z,5.29
2019-03-13T20:04:01.899Z,5.31
2019-03-13T20:06:42.053Z,5.33
2019-03-13T20:09:08.002Z,5.36
2019-03-13T20:11:39.183Z,5.38
2019-03-13T20:14:09.571Z,5.39
2019-03-13T20:16:40.293Z,5.42
2019-03-13T20:19:10.754Z,5.37
2019-03-13T20:21:41.230Z,5.39
2019-03-13T20:24:14.449Z,5.31
2019-03-13T20:26:44.933Z,5.33
2019-03-13T20:29:15.573Z,5.36
2019-03-13T20:31:46.140Z,5.35
2019-03-13T20:34:16.902Z,5.23
2019-03-13T20:36:49.935Z,5.23
2019-03-13T20:39:21.138Z,5.19
2019-03-13T20:41:57.978Z,5.18
2019-03-13T20:44:31.537Z,5.16
2019-03-13T20:47:05.081Z,5.06
2019-03-13T20:49:36.046Z,5.00
2019-03-13T20:52:10.617Z,4.95
2019-03-13T20:54:42.809Z,4.89
2019-03-13T20:57:13.731Z,4.89
2019-03-13T20:59:47.357Z,4.76
2019-03-13T21:02:18.359Z,4.68
2019-03-13T21:04:50.501Z,4.66
2019-03-13T21:07:21.455Z,4.69
2019-03-13T21:09:55.305Z,4.67
2019-03-13T21:12:24.298Z,4.65
2019-03-13T21:14:55.323Z,4.69
2019-03-13T21:17:26.261Z,4.61
2019-03-13T21:20:01.473Z,4.67
2019-03-13T21:22:36.457Z,4.63
2019-03-13T21:25:10.217Z,4.66
2019-03-13T21:27:40.892Z,4.67
2019-03-13T21:30:17.839Z,4.75
2019-03-13T21:32:50.253Z,4.69
2019-03-13T21:35:22.220Z,4.55
2019-03-13T21:37:53.003Z,4.63
2019-03-13T21:40:23.537Z,4.72
2019-03-13T21:42:55.858Z,4.76
2019-03-13T21:45:40.089Z,4.74
2019-03-13T21:47:59.087Z,4.80
2019-03-13T21:50:29.783Z,4.69
2019-03-13T21:53:01.250Z,4.72
2019-03-13T21:55:32.459Z,4.64
2019-03-13T21:58:04.783Z,4.58
2019-03-13T22:00:35.919Z,4.59
2019-03-13T22:03:10.759Z,4.59
2019-03-13T22:05:41.644Z,4.53
2019-03-13T22:08:12.399Z,4.48
2019-03-13T22:10:43.674Z,4.49
2019-03-13T22:13:17.791Z,4.56
2019-03-13T22:15:48.582Z,4.53
2019-03-13T22:18:20.804Z,4.53
2019-03-13T22:20:53.019Z,4.50
2019-03-13T22:23:23.789Z,4.55
2019-03-13T22:25:54.548Z,4.52
2019-03-13T22:28:25.468Z,4.48
2019-03-13T22:30:56.474Z,4.40
2019-03-13T22:33:28.274Z,4.39
2019-03-13T22:35:59.890Z,4.41
2019-03-13T22:38:35.007Z,4.36
2019-03-13T22:41:08.922Z,4.43
2019-03-13T22:43:39.551Z,4.37
2019-03-13T22:46:10.442Z,4.37
2019-03-13T22:48:42.897Z,4.35
2019-03-13T22:51:15.027Z,4.30
2019-03-13T22:53:45.395Z,4.37
2019-03-13T22:56:18.286Z,4.26
2019-03-13T22:58:53.963Z,4.35
2019-03-13T23:01:26.644Z,4.16
2019-03-13T23:03:58.060Z,4.19
2019-03-13T23:06:28.727Z,4.10
2019-03-13T23:08:58.997Z,4.07
2019-03-13T23:11:29.738Z,4.12
2019-03-13T23:14:00.310Z,4.11
2019-03-13T23:16:34.165Z,4.14
2019-03-13T23:19:06.738Z,4.21
2019-03-13T23:21:37.061Z,4.24
2019-03-13T23:24:07.700Z,4.24
2019-03-13T23:26:39.970Z,4.26
2019-03-13T23:29:12.238Z,4.27
2019-03-13T23:31:44.526Z,4.22
2019-03-13T23:34:16.387Z,4.21
2019-03-13T23:36:49.731Z,4.20
2019-03-13T23:39:20.064Z,4.19
2019-03-13T23:41:50.911Z,4.15
2019-03-13T23:44:23.099Z,4.19
2019-03-13T23:46:56.823Z,4.14
2019-03-13T23:49:27.484Z,4.15
2019-03-13T23:51:57.858Z,4.15
2019-03-13T23:54:28.769Z,4.05
2019-03-13T23:57:00.968Z,4.08
2019-03-13T23:59:33.149Z,3.97
